»·PEaware :: N5954W KOAK-KSAC

N5954W :: KOAK-KSAC

FLIGHT INFORMATION

Flight Status: Arrived
Operator: Privately registered:
United States
More flights under this callsign
Pilot: Joshua M. (19482)
Aircraft: CESSNA 172 SKYHAWK
(C172)
More flights by this aircraft type
Origin: KOAK Metro Oakland Intl
United States
Destination: KSAC Sacramento Executive
United States
More flights between these airports :: More routes between these airports
Route: +OAK3 SAC
File this flight plan on PilotEdge
Remarks:
Altitude:
(Current/Filed)
4,000ft
Speed:
(Current/Filed)
100kts
Departed: 19-Jun-18 06:32 PM
Arrived: 19-Jun-18 07:12 PM
Distance/Time
Traveled:
59nm/0:40
Distance/Time
To Go:
Arrived

Flight Plot

Page will automatically refresh every two minutes.

Flight plan parsing failed; only flown route is shown


Map Options




Map Legend


Flown Route
Filed Route
Departure Airport
Arrival Airport
Navaid (VOR, NDB)
Fix

Horizontal Profiles

Position Reports

Time Latitude Longitude Heading Altitude Ground
Speed
19-Jun-18 18:23 37.729299 -122.212016 307 12ft 0kts
19-Jun-18 18:24 37.729299 -122.212016 307 12ft 0kts
19-Jun-18 18:25 37.729299 -122.212016 307 12ft 0kts
19-Jun-18 18:26 37.729299 -122.212016 307 12ft 0kts
19-Jun-18 18:27 37.729333 -122.212080 299 12ft 2kts
19-Jun-18 18:28 37.728881 -122.212763 215 12ft 3kts
19-Jun-18 18:29 37.726618 -122.207064 111 12ft 31kts
19-Jun-18 18:30 37.725587 -122.204628 160 12ft 0kts
19-Jun-18 18:31 37.725026 -122.205354 292 12ft 7kts
19-Jun-18 18:32 37.729089 -122.217763 290 72ft 84kts
19-Jun-18 18:33 37.737951 -122.243309 291 622ft 88kts
19-Jun-18 18:34 37.747352 -122.270300 291 1193ft 87kts
19-Jun-18 18:35 37.759008 -122.293595 338 1723ft 96kts
19-Jun-18 18:36 37.777563 -122.277230 40 2170ft 112kts
19-Jun-18 18:37 37.795073 -122.256500 25 2644ft 106kts
19-Jun-18 18:38 37.815960 -122.240751 19 3012ft 111kts
19-Jun-18 18:39 37.837755 -122.227862 13 3317ft 113kts
19-Jun-18 18:40 37.860200 -122.219645 2 3614ft 111kts
19-Jun-18 18:41 37.886203 -122.214868 357 3952ft 110kts
19-Jun-18 18:42 37.910778 -122.213169 353 4121ft 119kts
19-Jun-18 18:43 37.935396 -122.213983 350 4118ft 125kts
19-Jun-18 18:44 37.960551 -122.216698 346 4118ft 125kts
19-Jun-18 18:45 37.987020 -122.221444 344 4118ft 125kts
19-Jun-18 18:46 38.013953 -122.221582 31 4109ft 136kts
19-Jun-18 18:47 38.034741 -122.193555 44 4118ft 137kts
19-Jun-18 18:48 38.054610 -122.164513 45 4118ft 138kts
19-Jun-18 18:49 38.075146 -122.133901 45 4118ft 138kts
19-Jun-18 18:50 38.095593 -122.103064 46 4118ft 138kts
19-Jun-18 18:51 38.112352 -122.077775 45 4118ft 138kts
19-Jun-18 18:52 38.134250 -122.044293 45 4078ft 141kts
19-Jun-18 18:53 38.158595 -122.008412 45 3716ft 150kts
19-Jun-18 18:54 38.187260 -121.965949 45 3295ft 151kts
19-Jun-18 18:55 38.208525 -121.927132 51 2941ft 152kts
19-Jun-18 18:56 38.226021 -121.894253 51 2646ft 152kts
19-Jun-18 18:57 38.248417 -121.851959 51 2270ft 152kts
19-Jun-18 18:58 38.270501 -121.809648 51 2142ft 143kts
19-Jun-18 18:59 38.291906 -121.768419 50 2142ft 141kts
19-Jun-18 19:00 38.312793 -121.728218 50 2142ft 141kts
19-Jun-18 19:01 38.333584 -121.688282 50 2143ft 141kts
19-Jun-18 19:02 38.355006 -121.647236 50 2143ft 141kts
19-Jun-18 19:03 38.375460 -121.606842 43 2143ft 139kts
19-Jun-18 19:04 38.402201 -121.588108 351 2140ft 97kts
19-Jun-18 19:05 38.425508 -121.570550 39 1934ft 129kts
19-Jun-18 19:06 38.446435 -121.549977 23 1454ft 116kts
19-Jun-18 19:07 38.464795 -121.529396 47 1110ft 115kts
19-Jun-18 19:08 38.477010 -121.507382 31 1072ft 96kts
19-Jun-18 19:09 38.489242 -121.491168 40 750ft 89kts
19-Jun-18 19:10 38.499974 -121.479499 4 473ft 67kts
19-Jun-18 19:11 38.510254 -121.483554 301 119ft 50kts
19-Jun-18 19:12 38.514307 -121.490969 257 27ft 0kts
19-Jun-18 19:13 38.513522 -121.493674 273 27ft 12kts
19-Jun-18 19:14 38.513729 -121.496983 214 27ft 0kts

Navigation Log

Ident Type
Flight plan parsing failed, navigation log unavailable